Terminal Aerodrome Forecast
Issued by NWS

Home | Current Version | Previous Version | Text Only | Print | Product List | Glossary On
Versions: 1 2 3 4 5 6 7 8 9 10 11 12 13 14 15 16 17 18
000
FTUS46 KSEW 221700
TAFPAE
TAF
KPAE 221738Z 2218/2318 21009KT P6SM SCT008 OVC013
      TEMPO 2218/2220 BKN008 OVC013
     FM222000 21009KT P6SM OVC020
     FM222200 23006KT P6SM BKN030 BKN060
     FM230600 VRB03KT P6SM OVC020
     FM230900 VRB03KT P6SM OVC010=

USA.gov is the U.S. government's official web portal to all federal, state and local government web resources and services.